Time,TemperatureF,DewpointF,PressureIn,WindDirection,WindDirectionDegrees,WindSpeedMPH,WindSpeedGustMPH,Humidity,HourlyPrecipIn,Conditions,Clouds,dailyrainin,SoftwareType,DateUTC
2013-12-15 00:00:00,49.3,49.3,30.07,North,1,0.0,14.0,100,0.00,,,0.21,Wunderground v.1.15,2013-12-15 10:00:00,
2013-12-15 00:05:00,49.1,49.1,30.07,North,1,0.0,14.0,100,0.00,,,0.00,Wunderground v.1.15,2013-12-15 10:05:00,
2013-12-15 00:15:00,48.6,48.6,30.07,North,1,0.0,14.0,100,0.00,,,0.00,Wunderground v.1.15,2013-12-15 10:15:00,
2013-12-15 00:20:00,48.5,48.5,30.06,North,1,0.0,14.0,100,0.00,,,0.00,Wunderground v.1.15,2013-12-15 10:20:00,
2013-12-15 00:25:00,48.3,48.3,30.06,North,1,0.0,14.0,100,0.00,,,0.00,Wunderground v.1.15,2013-12-15 10:25:00,
2013-12-15 00:30:00,48.1,48.1,30.06,North,1,0.0,14.0,100,0.00,,,0.00,Wunderground v.1.15,2013-12-15 10:30:00,
2013-12-15 00:35:00,47.9,47.9,30.06,North,1,0.0,14.0,100,0.00,,,0.00,Wunderground v.1.15,2013-12-15 10:35:00,
2013-12-15 00:45:00,47.8,47.8,30.06,North,1,0.0,14.0,100,0.00,,,0.00,Wunderground v.1.15,2013-12-15 10:45:00,
2013-12-15 00:50:00,47.8,47.8,30.05,North,1,0.0,14.0,100,0.00,,,0.00,Wunderground v.1.15,2013-12-15 10:50:00,
2013-12-15 01:00:00,47.7,47.7,30.05,North,1,0.0,14.0,100,0.00,,,0.00,Wunderground v.1.15,2013-12-15 11:00:00,
2013-12-15 01:05:00,47.6,47.6,30.05,North,1,0.0,14.0,100,0.00,,,0.00,Wunderground v.1.15,2013-12-15 11:05:00,
2013-12-15 01:10:00,47.5,47.5,30.05,North,1,0.0,14.0,100,0.00,,,0.00,Wunderground v.1.15,2013-12-15 11:10:00,
2013-12-15 01:15:00,47.6,47.6,30.05,North,1,0.0,14.0,100,0.00,,,0.00,Wunderground v.1.15,2013-12-15 11:15:00,
2013-12-15 01:20:00,47.9,47.9,30.03,North,1,0.0,14.0,100,0.00,,,0.00,Wunderground v.1.15,2013-12-15 11:20:00,
2013-12-15 01:25:00,48.2,48.2,30.03,North,1,0.0,14.0,100,0.00,,,0.00,Wunderground v.1.15,2013-12-15 11:25:00,
2013-12-15 01:30:00,48.3,48.3,30.03,North,1,0.0,14.0,100,0.00,,,0.00,Wunderground v.1.15,2013-12-15 11:30:00,
2013-12-15 01:35:00,48.6,48.6,30.03,North,1,0.0,14.0,100,0.00,,,0.00,Wunderground v.1.15,2013-12-15 11:35:00,
2013-12-15 01:40:00,48.7,48.7,30.03,North,1,0.0,14.0,100,0.00,,,0.01,Wunderground v.1.15,2013-12-15 11:40:00,
2013-12-15 01:45:00,48.9,48.9,30.03,North,1,0.0,14.0,100,0.00,,,0.01,Wunderground v.1.15,2013-12-15 11:45:00,
2013-12-15 01:55:00,48.9,48.9,30.02,North,1,0.0,14.0,100,0.00,,,0.01,Wunderground v.1.15,2013-12-15 11:55:00,
2013-12-15 02:00:00,48.9,48.9,30.02,North,1,0.0,14.0,100,0.00,,,0.01,Wunderground v.1.15,2013-12-15 12:00:00,
2013-12-15 02:05:00,49.0,49.0,30.02,North,1,0.0,14.0,100,0.00,,,0.01,Wunderground v.1.15,2013-12-15 12:05:00,
2013-12-15 02:15:00,49.3,49.3,30.02,North,1,0.0,14.0,100,0.00,,,0.01,Wunderground v.1.15,2013-12-15 12:15:00,
2013-12-15 02:20:00,49.4,49.4,30.02,North,1,0.0,14.0,100,0.00,,,0.01,Wunderground v.1.15,2013-12-15 12:20:00,
2013-12-15 02:30:00,49.7,49.7,30.02,North,1,0.0,14.0,100,0.00,,,0.01,Wunderground v.1.15,2013-12-15 12:30:00,
2013-12-15 02:35:00,50.0,50.0,30.00,North,1,0.0,14.0,100,0.00,,,0.01,Wunderground v.1.15,2013-12-15 12:35:00,
2013-12-15 02:40:00,50.3,50.3,30.00,North,1,0.0,14.0,100,0.00,,,0.01,Wunderground v.1.15,2013-12-15 12:40:00,
2013-12-15 02:45:00,50.7,50.7,30.00,North,1,0.0,14.0,100,0.00,,,0.01,Wunderground v.1.15,2013-12-15 12:45:00,
2013-12-15 02:50:00,51.0,51.0,30.00,North,1,0.0,14.0,100,0.00,,,0.01,Wunderground v.1.15,2013-12-15 12:50:00,
2013-12-15 02:55:00,51.4,51.4,30.00,North,1,0.0,14.0,100,0.00,,,0.01,Wunderground v.1.15,2013-12-15 12:55:00,
2013-12-15 03:00:00,52.0,52.0,30.00,North,1,0.0,14.0,100,0.00,,,0.01,Wunderground v.1.15,2013-12-15 13:00:00,
2013-12-15 03:05:00,52.3,52.3,29.98,North,1,0.0,14.0,100,0.00,,,0.01,Wunderground v.1.15,2013-12-15 13:05:00,
2013-12-15 03:10:00,52.6,52.6,29.98,North,1,0.0,14.0,100,0.00,,,0.01,Wunderground v.1.15,2013-12-15 13:10:00,
2013-12-15 03:15:00,52.8,52.8,29.98,North,1,0.0,14.0,100,0.00,,,0.01,Wunderground v.1.15,2013-12-15 13:15:00,
2013-12-15 03:20:00,52.8,52.8,29.98,North,1,0.0,14.0,100,0.00,,,0.01,Wunderground v.1.15,2013-12-15 13:20:00,
2013-12-15 03:30:00,52.7,52.7,29.98,North,1,0.0,14.0,100,0.00,,,0.01,Wunderground v.1.15,2013-12-15 13:30:00,
2013-12-15 03:40:00,52.7,52.7,29.98,North,1,0.0,14.0,100,0.00,,,0.01,Wunderground v.1.15,2013-12-15 13:40:00,
2013-12-15 03:45:00,52.7,52.7,29.98,North,1,0.0,14.0,100,0.00,,,0.01,Wunderground v.1.15,2013-12-15 13:45:00,
2013-12-15 03:50:00,52.7,52.7,29.98,North,1,0.0,14.0,100,0.00,,,0.01,Wunderground v.1.15,2013-12-15 13:50:00,
2013-12-15 03:55:00,52.6,52.6,29.98,North,1,0.0,14.0,100,0.00,,,0.01,Wunderground v.1.15,2013-12-15 13:55:00,
2013-12-15 04:00:00,52.6,52.6,29.98,North,1,0.0,14.0,100,0.00,,,0.01,Wunderground v.1.15,2013-12-15 14:00:00,
2013-12-15 04:10:00,52.6,52.6,29.98,North,1,0.0,14.0,100,0.00,,,0.01,Wunderground v.1.15,2013-12-15 14:10:00,
2013-12-15 04:15:00,52.3,52.3,29.98,North,1,0.0,14.0,100,0.00,,,0.01,Wunderground v.1.15,2013-12-15 14:15:00,
2013-12-15 04:20:00,52.1,52.1,30.00,North,1,0.0,14.0,100,0.00,,,0.01,Wunderground v.1.15,2013-12-15 14:20:00,
2013-12-15 04:25:00,51.9,51.9,30.00,North,1,0.0,14.0,100,0.00,,,0.01,Wunderground v.1.15,2013-12-15 14:25:00,
2013-12-15 04:35:00,51.5,51.5,29.99,North,1,0.0,14.0,100,0.00,,,0.01,Wunderground v.1.15,2013-12-15 14:35:00,
2013-12-15 04:40:00,51.3,51.3,29.99,North,1,0.0,14.0,100,0.00,,,0.01,Wunderground v.1.15,2013-12-15 14:40:00,
2013-12-15 04:45:00,51.0,51.0,29.99,North,1,0.0,14.0,100,0.00,,,0.01,Wunderground v.1.15,2013-12-15 14:45:00,
2013-12-15 04:50:00,50.8,50.8,30.00,North,1,0.0,14.0,100,0.00,,,0.01,Wunderground v.1.15,2013-12-15 14:50:00,
2013-12-15 04:55:00,50.6,50.6,30.00,North,1,0.0,14.0,100,0.00,,,0.01,Wunderground v.1.15,2013-12-15 14:55:00,
2013-12-15 05:00:00,50.4,50.4,30.00,North,1,0.0,14.0,100,0.00,,,0.01,Wunderground v.1.15,2013-12-15 15:00:00,
2013-12-15 05:05:00,50.3,50.3,30.01,North,1,0.0,14.0,100,0.00,,,0.01,Wunderground v.1.15,2013-12-15 15:05:00,
2013-12-15 05:10:00,50.2,50.2,30.01,North,1,0.0,14.0,100,0.00,,,0.01,Wunderground v.1.15,2013-12-15 15:10:00,
2013-12-15 05:15:00,50.1,50.1,30.01,North,1,0.0,14.0,100,0.00,,,0.01,Wunderground v.1.15,2013-12-15 15:15:00,
2013-12-15 05:20:00,49.8,49.8,30.02,North,1,0.0,14.0,100,0.00,,,0.01,Wunderground v.1.15,2013-12-15 15:20:00,
2013-12-15 05:25:00,49.7,49.7,30.02,North,1,0.0,14.0,100,0.00,,,0.01,Wunderground v.1.15,2013-12-15 15:25:00,
2013-12-15 05:30:00,49.6,49.6,30.02,North,1,0.0,14.0,100,0.00,,,0.01,Wunderground v.1.15,2013-12-15 15:30:00,
2013-12-15 05:35:00,49.4,49.4,30.02,North,1,0.0,14.0,100,0.00,,,0.01,Wunderground v.1.15,2013-12-15 15:35:00,
2013-12-15 05:40:00,49.4,49.4,30.02,North,1,0.0,14.0,100,0.00,,,0.01,Wunderground v.1.15,2013-12-15 15:40:00,
2013-12-15 05:45:00,49.2,49.2,30.02,North,1,0.0,14.0,100,0.00,,,0.01,Wunderground v.1.15,2013-12-15 15:45:00,
2013-12-15 05:50:00,49.0,49.0,30.02,North,1,0.0,14.0,100,0.00,,,0.01,Wunderground v.1.15,2013-12-15 15:50:00,
2013-12-15 05:55:00,48.9,48.9,30.02,North,1,0.0,14.0,100,0.00,,,0.01,Wunderground v.1.15,2013-12-15 15:55:00,
2013-12-15 06:00:00,48.8,48.8,30.02,North,1,0.0,14.0,100,0.00,,,0.01,Wunderground v.1.15,2013-12-15 16:00:00,
2013-12-15 06:05:00,48.7,48.7,30.02,North,1,0.0,14.0,100,0.00,,,0.01,Wunderground v.1.15,2013-12-15 16:05:00,
2013-12-15 06:15:00,48.3,48.3,30.02,North,1,0.0,14.0,100,0.00,,,0.01,Wunderground v.1.15,2013-12-15 16:15:00,
2013-12-15 06:25:00,48.1,48.1,30.02,North,1,0.0,14.0,100,0.00,,,0.01,Wunderground v.1.15,2013-12-15 16:25:00,
2013-12-15 06:30:00,47.9,47.9,30.02,North,1,0.0,14.0,100,0.00,,,0.01,Wunderground v.1.15,2013-12-15 16:30:00,
2013-12-15 06:35:00,47.7,47.7,30.02,North,1,0.0,14.0,100,0.00,,,0.01,Wunderground v.1.15,2013-12-15 16:35:00,
2013-12-15 06:40:00,47.5,47.5,30.02,North,1,0.0,14.0,100,0.00,,,0.01,Wunderground v.1.15,2013-12-15 16:40:00,
2013-12-15 06:45:00,47.2,47.2,30.02,North,1,0.0,14.0,100,0.00,,,0.01,Wunderground v.1.15,2013-12-15 16:45:00,
2013-12-15 06:50:00,47.3,47.3,30.03,North,0,0.0,14.0,100,0.00,,,0.01,Wunderground v.1.15,2013-12-15 16:50:00,
2013-12-15 06:55:00,47.6,47.6,30.03,North,0,0.0,14.0,100,0.00,,,0.01,Wunderground v.1.15,2013-12-15 16:55:00,
2013-12-15 07:00:00,47.5,47.5,30.03,North,0,0.0,14.0,100,0.00,,,0.01,Wunderground v.1.15,2013-12-15 17:00:00,
2013-12-15 07:10:00,47.7,47.7,30.04,North,0,0.0,14.0,100,0.00,,,0.01,Wunderground v.1.15,2013-12-15 17:10:00,
2013-12-15 07:15:00,47.8,47.8,30.04,North,0,0.0,14.0,100,0.00,,,0.01,Wunderground v.1.15,2013-12-15 17:15:00,
2013-12-15 07:20:00,47.7,47.7,30.04,North,0,0.0,14.0,100,0.00,,,0.01,Wunderground v.1.15,2013-12-15 17:20:00,
2013-12-15 07:30:00,48.1,48.1,30.04,North,1,0.0,14.0,100,0.00,,,0.01,Wunderground v.1.15,2013-12-15 17:30:00,
2013-12-15 07:35:00,48.4,48.4,30.04,North,1,0.0,14.0,100,0.00,,,0.01,Wunderground v.1.15,2013-12-15 17:35:00,
2013-12-15 07:40:00,48.8,48.8,30.04,North,1,0.0,14.0,100,0.00,,,0.01,Wunderground v.1.15,2013-12-15 17:40:00,
2013-12-15 07:45:00,49.3,49.3,30.04,North,1,0.0,14.0,100,0.00,,,0.01,Wunderground v.1.15,2013-12-15 17:45:00,
2013-12-15 07:50:00,49.9,49.9,30.05,North,1,0.0,14.0,100,0.00,,,0.01,Wunderground v.1.15,2013-12-15 17:50:00,
2013-12-15 07:55:00,50.4,50.4,30.05,North,1,0.0,14.0,100,0.00,,,0.01,Wunderground v.1.15,2013-12-15 17:55:00,
2013-12-15 08:05:00,52.1,52.1,30.05,North,1,0.0,14.0,100,0.00,,,0.01,Wunderground v.1.15,2013-12-15 18:05:00,
2013-12-15 08:10:00,52.8,52.8,30.05,North,1,0.0,14.0,100,0.00,,,0.01,Wunderground v.1.15,2013-12-15 18:10:00,
2013-12-15 08:15:00,53.6,53.6,30.05,North,1,0.0,14.0,100,0.00,,,0.01,Wunderground v.1.15,2013-12-15 18:15:00,
2013-12-15 08:20:00,54.4,54.4,30.05,North,1,0.0,14.0,100,0.00,,,0.01,Wunderground v.1.15,2013-12-15 18:20:00,
2013-12-15 08:25:00,55.2,55.2,30.05,North,1,0.0,14.0,100,0.00,,,0.01,Wunderground v.1.15,2013-12-15 18:25:00,
2013-12-15 08:30:00,55.7,55.7,30.05,North,1,0.0,14.0,100,0.00,,,0.01,Wunderground v.1.15,2013-12-15 18:30:00,
2013-12-15 08:40:00,56.4,56.4,30.04,North,1,0.0,14.0,100,0.00,,,0.01,Wunderground v.1.15,2013-12-15 18:40:00,
2013-12-15 08:45:00,56.8,56.8,30.04,North,1,0.0,14.0,100,0.00,,,0.01,Wunderground v.1.15,2013-12-15 18:45:00,
2013-12-15 08:50:00,57.3,57.3,30.04,North,1,0.0,14.0,100,0.00,,,0.01,Wunderground v.1.15,2013-12-15 18:50:00,
2013-12-15 08:55:00,57.7,57.7,30.04,North,1,1.0,14.0,100,0.00,,,0.01,Wunderground v.1.15,2013-12-15 18:55:00,
2013-12-15 09:00:00,58.2,58.2,30.04,SE,136,1.0,14.0,100,0.00,,,0.01,Wunderground v.1.15,2013-12-15 19:00:00,
2013-12-15 09:05:00,58.5,58.5,30.04,WSW,238,1.0,14.0,100,0.00,,,0.01,Wunderground v.1.15,2013-12-15 19:05:00,
2013-12-15 09:10:00,58.7,58.7,30.04,SW,226,1.0,14.0,100,0.00,,,0.01,Wunderground v.1.15,2013-12-15 19:10:00,
2013-12-15 09:15:00,59.1,59.1,30.04,SSW,200,1.0,14.0,100,0.00,,,0.01,Wunderground v.1.15,2013-12-15 19:15:00,
2013-12-15 09:20:00,59.8,59.5,30.04,SSW,204,1.0,1.0,99,0.00,,,0.01,Wunderground v.1.15,2013-12-15 19:20:00,
2013-12-15 09:25:00,60.5,59.6,30.04,South,172,1.0,3.0,97,0.00,,,0.01,Wunderground v.1.15,2013-12-15 19:25:00,
2013-12-15 09:30:00,60.9,58.9,30.04,South,189,2.0,2.0,93,0.00,,,0.01,Wunderground v.1.15,2013-12-15 19:30:00,
2013-12-15 09:35:00,61.4,59.1,30.04,SW,214,2.0,14.0,92,0.00,,,0.01,Wunderground v.1.15,2013-12-15 19:35:00,
2013-12-15 09:45:00,61.5,58.5,30.04,South,169,1.0,14.0,90,0.00,,,0.01,Wunderground v.1.15,2013-12-15 19:45:00,
2013-12-15 09:50:00,61.6,58.3,30.03,SSW,193,1.0,1.0,89,0.00,,,0.01,Wunderground v.1.15,2013-12-15 19:50:00,
2013-12-15 09:55:00,61.8,58.5,30.03,SSW,193,1.0,14.0,89,0.00,,,0.01,Wunderground v.1.15,2013-12-15 19:55:00,
2013-12-15 10:00:00,61.7,58.4,30.03,SW,234,1.0,14.0,89,0.00,,,0.01,Wunderground v.1.15,2013-12-15 20:00:00,
2013-12-15 10:05:00,61.8,58.5,30.04,SW,224,1.0,14.0,89,0.00,,,0.01,Wunderground v.1.15,2013-12-15 20:05:00,
2013-12-15 10:10:00,61.8,58.5,30.04,WNW,297,1.0,1.0,89,0.00,,,0.01,Wunderground v.1.15,2013-12-15 20:10:00,
2013-12-15 10:20:00,62.6,59.0,30.04,South,177,1.0,14.0,88,0.00,,,0.01,Wunderground v.1.15,2013-12-15 20:20:00,
2013-12-15 10:25:00,63.0,59.4,30.04,SSE,150,1.0,14.0,88,0.00,,,0.01,Wunderground v.1.15,2013-12-15 20:25:00,
2013-12-15 10:30:00,63.6,59.7,30.04,SW,217,1.0,14.0,87,0.00,,,0.01,Wunderground v.1.15,2013-12-15 20:30:00,
2013-12-15 10:35:00,63.9,59.6,30.02,WSW,238,1.0,14.0,86,0.00,,,0.01,Wunderground v.1.15,2013-12-15 20:35:00,
2013-12-15 10:40:00,64.3,59.7,30.02,SW,235,1.0,14.0,85,0.00,,,0.01,Wunderground v.1.15,2013-12-15 20:40:00,
2013-12-15 10:45:00,65.0,60.0,30.02,SSW,206,1.0,14.0,84,0.00,,,0.01,Wunderground v.1.15,2013-12-15 20:45:00,
2013-12-15 10:55:00,66.5,60.8,30.01,SSE,152,2.0,14.0,82,0.00,,,0.01,Wunderground v.1.15,2013-12-15 20:55:00,
2013-12-15 11:00:00,67.3,60.9,30.01,SSW,212,2.0,2.0,80,0.00,,,0.01,Wunderground v.1.15,2013-12-15 21:00:00,
2013-12-15 11:05:00,67.0,60.3,29.99,SSE,149,2.0,4.0,79,0.00,,,0.01,Wunderground v.1.15,2013-12-15 21:05:00,
2013-12-15 11:15:00,67.5,60.8,29.99,West,278,2.0,14.0,79,0.00,,,0.01,Wunderground v.1.15,2013-12-15 21:15:00,
2013-12-15 11:20:00,67.9,60.8,29.99,SSE,156,1.0,14.0,78,0.00,,,0.01,Wunderground v.1.15,2013-12-15 21:20:00,
2013-12-15 11:30:00,67.3,60.2,29.99,NW,316,1.0,1.0,78,0.00,,,0.01,Wunderground v.1.15,2013-12-15 21:30:00,
2013-12-15 11:35:00,67.1,59.6,29.99,SW,215,2.0,2.0,77,0.00,,,0.01,Wunderground v.1.15,2013-12-15 21:35:00,
2013-12-15 11:40:00,67.1,60.0,29.99,SE,131,2.0,14.0,78,0.00,,,0.01,Wunderground v.1.15,2013-12-15 21:40:00,
2013-12-15 11:45:00,66.8,60.1,29.99,SW,219,2.0,14.0,79,0.00,,,0.01,Wunderground v.1.15,2013-12-15 21:45:00,
2013-12-15 11:50:00,66.7,59.6,29.99,SSW,211,2.0,14.0,78,0.00,,,0.01,Wunderground v.1.15,2013-12-15 21:50:00,
2013-12-15 12:00:00,66.7,60.0,29.99,SSE,161,2.0,2.0,79,0.00,,,0.01,Wunderground v.1.15,2013-12-15 22:00:00,
2013-12-15 12:05:00,67.0,60.6,29.98,ENE,76,1.0,14.0,80,0.00,,,0.01,Wunderground v.1.15,2013-12-15 22:05:00,
2013-12-15 12:15:00,67.5,60.4,29.98,SSE,162,0.0,14.0,78,0.00,,,0.01,Wunderground v.1.15,2013-12-15 22:15:00,
2013-12-15 12:20:00,67.3,59.8,29.98,NNE,20,1.0,14.0,77,0.00,,,0.01,Wunderground v.1.15,2013-12-15 22:20:00,
2013-12-15 12:25:00,67.2,60.1,29.98,SE,143,1.0,14.0,78,0.00,,,0.01,Wunderground v.1.15,2013-12-15 22:25:00,
2013-12-15 12:35:00,66.8,61.1,29.98,SSE,159,1.0,14.0,82,0.00,,,0.01,Wunderground v.1.15,2013-12-15 22:35:00,
2013-12-15 12:40:00,66.6,60.6,29.98,East,87,1.0,1.0,81,0.00,,,0.01,Wunderground v.1.15,2013-12-15 22:40:00,
2013-12-15 12:50:00,66.4,60.7,29.98,SE,138,1.0,1.0,82,0.00,,,0.01,Wunderground v.1.15,2013-12-15 22:50:00,
2013-12-15 12:55:00,66.4,60.7,29.98,NE,34,1.0,14.0,82,0.00,,,0.01,Wunderground v.1.15,2013-12-15 22:55:00,
2013-12-15 13:00:00,66.3,61.7,29.98,North,0,0.0,14.0,85,0.00,,,0.01,Wunderground v.1.15,2013-12-15 23:00:00,
2013-12-15 13:10:00,64.7,61.7,29.97,NNW,345,2.0,14.0,90,0.00,,,0.01,Wunderground v.1.15,2013-12-15 23:10:00,
2013-12-15 13:15:00,64.2,61.5,29.97,NE,52,2.0,14.0,91,0.00,,,0.01,Wunderground v.1.15,2013-12-15 23:15:00,
2013-12-15 13:20:00,64.0,61.6,29.97,NE,38,1.0,1.0,92,0.00,,,0.01,Wunderground v.1.15,2013-12-15 23:20:00,
2013-12-15 13:25:00,63.5,61.4,29.97,North,0,1.0,2.0,93,0.00,,,0.01,Wunderground v.1.15,2013-12-15 23:25:00,
2013-12-15 13:30:00,63.0,61.2,29.97,North,8,1.0,14.0,94,0.00,,,0.01,Wunderground v.1.15,2013-12-15 23:30:00,
2013-12-15 13:35:00,62.9,61.4,29.98,North,354,1.0,14.0,95,0.00,,,0.01,Wunderground v.1.15,2013-12-15 23:35:00,
2013-12-15 13:45:00,63.0,61.2,29.98,East,80,1.0,2.0,94,0.00,,,0.01,Wunderground v.1.15,2013-12-15 23:45:00,
2013-12-15 13:50:00,63.2,61.7,29.97,NNE,13,1.0,14.0,95,0.00,,,0.01,Wunderground v.1.15,2013-12-15 23:50:00,
2013-12-15 14:00:00,63.6,61.5,29.97,NNW,348,1.0,14.0,93,0.00,,,0.01,Wunderground v.1.15,2013-12-16 00:00:00,
2013-12-15 14:05:00,63.8,61.7,29.97,NNE,27,2.0,14.0,93,0.00,,,0.01,Wunderground v.1.15,2013-12-16 00:05:00,
2013-12-15 14:10:00,64.2,61.8,29.97,NNE,27,2.0,2.0,92,0.00,,,0.01,Wunderground v.1.15,2013-12-16 00:10:00,
2013-12-15 14:20:00,64.3,62.2,29.96,NE,46,2.0,2.0,93,0.00,,,0.01,Wunderground v.1.15,2013-12-16 00:20:00,
2013-12-15 14:25:00,64.4,62.3,29.96,North,1,2.0,14.0,93,0.00,,,0.01,Wunderground v.1.15,2013-12-16 00:25:00,
2013-12-15 14:30:00,64.7,62.3,29.96,North,1,2.0,14.0,92,0.00,,,0.01,Wunderground v.1.15,2013-12-16 00:30:00,
2013-12-15 14:35:00,64.8,62.1,29.95,ENE,68,1.0,14.0,91,0.00,,,0.01,Wunderground v.1.15,2013-12-16 00:35:00,
2013-12-15 14:40:00,64.4,62.0,29.95,North,359,2.0,14.0,92,0.00,,,0.01,Wunderground v.1.15,2013-12-16 00:40:00,
2013-12-15 14:50:00,63.2,61.4,29.96,North,359,3.0,14.0,94,0.00,,,0.01,Wunderground v.1.15,2013-12-16 00:50:00,
2013-12-15 14:55:00,63.1,61.6,29.96,North,1,2.0,14.0,95,0.00,,,0.01,Wunderground v.1.15,2013-12-16 00:55:00,
2013-12-15 15:05:00,63.1,61.6,29.95,North,7,2.0,14.0,95,0.00,,,0.01,Wunderground v.1.15,2013-12-16 01:05:00,
2013-12-15 15:10:00,63.0,61.5,29.95,NNE,20,2.0,2.0,95,0.00,,,0.01,Wunderground v.1.15,2013-12-16 01:10:00,
2013-12-15 15:15:00,62.7,61.2,29.95,ENE,69,2.0,14.0,95,0.00,,,0.01,Wunderground v.1.15,2013-12-16 01:15:00,
2013-12-15 15:25:00,62.0,60.8,29.95,NE,41,2.0,3.0,96,0.00,,,0.01,Wunderground v.1.15,2013-12-16 01:25:00,
2013-12-15 15:30:00,61.5,60.3,29.95,East,84,2.0,14.0,96,0.00,,,0.01,Wunderground v.1.15,2013-12-16 01:30:00,
2013-12-15 15:35:00,61.3,60.4,29.97,NNW,331,2.0,14.0,97,0.00,,,0.01,Wunderground v.1.15,2013-12-16 01:35:00,
2013-12-15 15:40:00,61.1,60.2,29.97,NNE,14,2.0,14.0,97,0.00,,,0.01,Wunderground v.1.15,2013-12-16 01:40:00,
2013-12-15 15:45:00,60.9,60.0,29.97,North,1,2.0,14.0,97,0.00,,,0.01,Wunderground v.1.15,2013-12-16 01:45:00,
2013-12-15 15:50:00,60.9,60.0,29.97,NNE,17,2.0,2.0,97,0.00,,,0.01,Wunderground v.1.15,2013-12-16 01:50:00,
2013-12-15 16:00:00,60.9,60.0,29.97,North,1,2.0,2.0,97,0.00,,,0.01,Wunderground v.1.15,2013-12-16 02:00:00,
2013-12-15 16:10:00,60.7,59.8,29.97,North,0,1.0,14.0,97,0.00,,,0.01,Wunderground v.1.15,2013-12-16 02:10:00,
2013-12-15 16:15:00,60.7,59.8,29.97,NW,324,1.0,14.0,97,0.00,,,0.01,Wunderground v.1.15,2013-12-16 02:15:00,
2013-12-15 16:20:00,60.6,59.5,30.00,North,1,1.0,14.0,96,0.00,,,0.01,Wunderground v.1.15,2013-12-16 02:20:00,
2013-12-15 16:25:00,60.5,59.4,30.00,NNE,23,1.0,14.0,96,0.00,,,0.01,Wunderground v.1.15,2013-12-16 02:25:00,
2013-12-15 16:35:00,60.6,59.5,30.00,NNE,23,0.0,14.0,96,0.00,,,0.01,Wunderground v.1.15,2013-12-16 02:35:00,
2013-12-15 16:40:00,60.5,59.4,30.00,NNE,23,0.0,14.0,96,0.00,,,0.01,Wunderground v.1.15,2013-12-16 02:40:00,
2013-12-15 16:45:00,60.6,59.7,30.00,NNE,23,0.0,14.0,97,0.00,,,0.01,Wunderground v.1.15,2013-12-16 02:45:00,
2013-12-15 16:50:00,60.6,59.7,30.00,NNE,23,0.0,14.0,97,0.00,,,0.01,Wunderground v.1.15,2013-12-16 02:50:00,
2013-12-15 16:55:00,60.6,59.7,30.00,NNE,23,0.0,14.0,97,0.00,,,0.01,Wunderground v.1.15,2013-12-16 02:55:00,
2013-12-15 17:05:00,60.7,59.8,30.00,NNE,23,0.0,14.0,97,0.00,,,0.01,Wunderground v.1.15,2013-12-16 03:05:00,
2013-12-15 17:15:00,60.6,59.7,30.00,NNE,23,0.0,14.0,97,0.00,,,0.01,Wunderground v.1.15,2013-12-16 03:15:00,
2013-12-15 17:20:00,60.7,59.8,29.99,NNE,23,0.0,14.0,97,0.00,,,0.01,Wunderground v.1.15,2013-12-16 03:20:00,
2013-12-15 17:25:00,60.6,59.7,29.99,NNE,23,0.0,14.0,97,0.00,,,0.01,Wunderground v.1.15,2013-12-16 03:25:00,
2013-12-15 17:30:00,60.6,59.7,29.99,NNE,23,0.0,14.0,97,0.00,,,0.01,Wunderground v.1.15,2013-12-16 03:30:00,
2013-12-15 17:40:00,60.5,59.6,30.00,NNE,23,0.0,14.0,97,0.00,,,0.01,Wunderground v.1.15,2013-12-16 03:40:00,
2013-12-15 17:45:00,60.4,59.5,30.00,NNE,23,0.0,14.0,97,0.00,,,0.01,Wunderground v.1.15,2013-12-16 03:45:00,
2013-12-15 17:50:00,60.3,59.4,30.01,NNE,23,0.0,14.0,97,0.00,,,0.01,Wunderground v.1.15,2013-12-16 03:50:00,
2013-12-15 17:55:00,60.3,59.7,30.01,NNE,23,0.0,14.0,98,0.00,,,0.01,Wunderground v.1.15,2013-12-16 03:55:00,
2013-12-15 18:00:00,60.2,59.6,30.01,NNE,23,0.0,14.0,98,0.00,,,0.01,Wunderground v.1.15,2013-12-16 04:00:00,
2013-12-15 18:10:00,60.1,59.5,30.01,NNE,23,0.0,14.0,98,0.00,,,0.01,Wunderground v.1.15,2013-12-16 04:10:00,
2013-12-15 18:20:00,60.0,59.4,30.00,NNE,23,0.0,14.0,98,0.00,,,0.01,Wunderground v.1.15,2013-12-16 04:20:00,
2013-12-15 18:25:00,59.9,59.3,30.00,NNE,23,0.0,14.0,98,0.00,,,0.01,Wunderground v.1.15,2013-12-16 04:25:00,
2013-12-15 18:30:00,59.8,59.2,30.00,NNE,23,0.0,14.0,98,0.00,,,0.01,Wunderground v.1.15,2013-12-16 04:30:00,
2013-12-15 18:35:00,59.7,59.1,30.00,NNE,23,0.0,14.0,98,0.00,,,0.01,Wunderground v.1.15,2013-12-16 04:35:00,
2013-12-15 18:40:00,59.6,59.0,30.00,NNE,23,0.0,14.0,98,0.00,,,0.01,Wunderground v.1.15,2013-12-16 04:40:00,
2013-12-15 18:50:00,59.5,58.9,30.00,NNE,23,0.0,14.0,98,0.00,,,0.01,Wunderground v.1.15,2013-12-16 04:50:00,
2013-12-15 18:55:00,59.4,59.1,30.00,NNE,23,0.0,14.0,99,0.00,,,0.02,Wunderground v.1.15,2013-12-16 04:55:00,
2013-12-15 19:00:00,59.4,59.1,30.00,NNE,23,0.0,14.0,99,0.00,,,0.02,Wunderground v.1.15,2013-12-16 05:00:00,
2013-12-15 19:05:00,59.4,59.1,30.01,NNE,23,0.0,14.0,99,0.00,,,0.02,Wunderground v.1.15,2013-12-16 05:05:00,
2013-12-15 19:10:00,59.3,59.0,30.01,NNE,23,0.0,14.0,99,0.00,,,0.02,Wunderground v.1.15,2013-12-16 05:10:00,
2013-12-15 19:15:00,59.3,59.0,30.01,NNE,23,0.0,14.0,99,0.00,,,0.02,Wunderground v.1.15,2013-12-16 05:15:00,
2013-12-15 19:20:00,59.2,58.9,29.99,NNE,23,0.0,14.0,99,0.00,,,0.02,Wunderground v.1.15,2013-12-16 05:20:00,
2013-12-15 19:30:00,59.0,58.7,29.99,NNE,23,0.0,14.0,99,0.00,,,0.02,Wunderground v.1.15,2013-12-16 05:30:00,
2013-12-15 19:35:00,58.9,58.6,30.01,NNE,23,0.0,14.0,99,0.00,,,0.02,Wunderground v.1.15,2013-12-16 05:35:00,
2013-12-15 19:40:00,58.9,58.6,30.01,NNE,23,0.0,14.0,99,0.00,,,0.02,Wunderground v.1.15,2013-12-16 05:40:00,
2013-12-15 19:45:00,58.8,58.5,30.01,NNE,23,0.0,14.0,99,0.00,,,0.02,Wunderground v.1.15,2013-12-16 05:45:00,
2013-12-15 19:55:00,58.6,58.3,30.01,NNE,23,0.0,14.0,99,0.00,,,0.02,Wunderground v.1.15,2013-12-16 05:55:00,
2013-12-15 20:00:00,58.4,58.1,30.01,NNE,23,0.0,14.0,99,0.00,,,0.02,Wunderground v.1.15,2013-12-16 06:00:00,
2013-12-15 20:05:00,58.2,57.9,30.01,NNE,23,0.0,14.0,99,0.00,,,0.02,Wunderground v.1.15,2013-12-16 06:05:00,
2013-12-15 20:10:00,58.1,57.8,30.01,NNE,23,0.0,14.0,99,0.00,,,0.02,Wunderground v.1.15,2013-12-16 06:10:00,
2013-12-15 20:15:00,58.0,57.7,30.01,NNE,23,0.0,14.0,99,0.00,,,0.02,Wunderground v.1.15,2013-12-16 06:15:00,
2013-12-15 20:20:00,57.8,57.5,29.98,NNE,23,0.0,14.0,99,0.00,,,0.02,Wunderground v.1.15,2013-12-16 06:20:00,
2013-12-15 20:30:00,57.5,57.2,29.98,NNE,23,0.0,14.0,99,0.00,,,0.02,Wunderground v.1.15,2013-12-16 06:30:00,
2013-12-15 20:40:00,57.3,57.0,29.98,NNE,23,0.0,14.0,99,0.00,,,0.02,Wunderground v.1.15,2013-12-16 06:40:00,
2013-12-15 20:45:00,57.3,57.0,29.98,NNE,23,0.0,14.0,99,0.00,,,0.02,Wunderground v.1.15,2013-12-16 06:45:00,
2013-12-15 20:50:00,57.2,56.9,29.99,NNE,23,0.0,14.0,99,0.00,,,0.02,Wunderground v.1.15,2013-12-16 06:50:00,
2013-12-15 20:55:00,57.1,56.8,29.99,NNE,23,0.0,14.0,99,0.00,,,0.02,Wunderground v.1.15,2013-12-16 06:55:00,
2013-12-15 21:00:00,57.1,56.8,29.99,NNE,23,0.0,14.0,99,0.00,,,0.02,Wunderground v.1.15,2013-12-16 07:00:00,
2013-12-15 21:05:00,56.9,56.6,29.99,NNE,23,0.0,14.0,99,0.00,,,0.02,Wunderground v.1.15,2013-12-16 07:05:00,
2013-12-15 21:10:00,56.8,56.5,29.99,NNE,23,0.0,14.0,99,0.00,,,0.02,Wunderground v.1.15,2013-12-16 07:10:00,
2013-12-15 21:15:00,56.7,56.4,29.99,NNE,23,0.0,14.0,99,0.00,,,0.02,Wunderground v.1.15,2013-12-16 07:15:00,
2013-12-15 21:20:00,56.6,56.3,29.98,NNE,23,0.0,14.0,99,0.00,,,0.02,Wunderground v.1.15,2013-12-16 07:20:00,
2013-12-15 21:30:00,56.2,55.9,29.98,NNE,23,0.0,14.0,99,0.00,,,0.02,Wunderground v.1.15,2013-12-16 07:30:00,
2013-12-15 21:40:00,55.7,55.4,29.98,NNE,23,0.0,14.0,99,0.00,,,0.02,Wunderground v.1.15,2013-12-16 07:40:00,
2013-12-15 21:45:00,55.6,55.3,29.98,NNE,23,0.0,14.0,99,0.00,,,0.02,Wunderground v.1.15,2013-12-16 07:45:00,
2013-12-15 21:50:00,55.9,55.9,29.98,NNE,23,0.0,14.0,100,0.00,,,0.02,Wunderground v.1.15,2013-12-16 07:50:00,
2013-12-15 21:55:00,56.3,56.3,29.98,NNE,23,0.0,14.0,100,0.00,,,0.02,Wunderground v.1.15,2013-12-16 07:55:00,
2013-12-15 22:00:00,56.8,56.8,29.98,NNE,23,0.0,14.0,100,0.00,,,0.02,Wunderground v.1.15,2013-12-16 08:00:00,
2013-12-15 22:10:00,57.9,57.9,29.97,NNE,23,2.0,2.0,100,0.00,,,0.02,Wunderground v.1.15,2013-12-16 08:10:00,
2013-12-15 22:15:00,58.2,58.2,29.97,NNE,23,2.0,4.0,100,0.00,,,0.02,Wunderground v.1.15,2013-12-16 08:15:00,
2013-12-15 22:20:00,58.4,58.4,29.95,SSW,203,2.0,14.0,100,0.00,,,0.02,Wunderground v.1.15,2013-12-16 08:20:00,
2013-12-15 22:25:00,58.5,58.5,29.95,SSW,209,2.0,14.0,100,0.00,,,0.02,Wunderground v.1.15,2013-12-16 08:25:00,
2013-12-15 22:30:00,58.5,58.5,29.95,SSW,209,1.0,14.0,100,0.00,,,0.02,Wunderground v.1.15,2013-12-16 08:30:00,
2013-12-15 22:40:00,58.5,58.5,29.94,SW,230,1.0,14.0,100,0.00,,,0.02,Wunderground v.1.15,2013-12-16 08:40:00,
2013-12-15 22:50:00,58.4,58.4,29.94,SW,228,2.0,14.0,100,0.00,,,0.02,Wunderground v.1.15,2013-12-16 08:50:00,
2013-12-15 22:55:00,58.3,58.3,29.94,SW,228,2.0,14.0,100,0.00,,,0.02,Wunderground v.1.15,2013-12-16 08:55:00,
2013-12-15 23:00:00,58.2,58.2,29.94,SW,228,1.0,1.0,100,0.00,,,0.02,Wunderground v.1.15,2013-12-16 09:00:00,
2013-12-15 23:05:00,58.2,58.2,29.95,WSW,246,1.0,14.0,100,0.00,,,0.02,Wunderground v.1.15,2013-12-16 09:05:00,
2013-12-15 23:10:00,58.1,58.1,29.95,WSW,246,0.0,14.0,100,0.00,,,0.02,Wunderground v.1.15,2013-12-16 09:10:00,
2013-12-15 23:20:00,58.1,58.1,29.95,SW,236,0.0,14.0,100,0.00,,,0.02,Wunderground v.1.15,2013-12-16 09:20:00,
2013-12-15 23:25:00,58.1,58.1,29.95,SW,236,0.0,14.0,100,0.00,,,0.02,Wunderground v.1.15,2013-12-16 09:25:00,
2013-12-15 23:30:00,58.0,58.0,29.95,South,190,1.0,14.0,100,0.00,,,0.02,Wunderground v.1.15,2013-12-16 09:30:00,
2013-12-15 23:35:00,58.0,58.0,29.95,SSW,197,1.0,14.0,100,0.00,,,0.02,Wunderground v.1.15,2013-12-16 09:35:00,
2013-12-15 23:45:00,58.1,58.1,29.95,SW,222,2.0,4.0,100,0.00,,,0.02,Wunderground v.1.15,2013-12-16 09:45:00,
2013-12-15 23:55:00,58.2,58.2,29.95,SSW,203,2.0,14.0,100,0.00,,,0.02,Wunderground v.1.15,2013-12-16 09:55:00,